createdAt,value
2017-12-01T00:00:56.919Z,1025.07
2017-12-01T00:01:56.903Z,1025.05
2017-12-01T00:02:56.894Z,1025.03
2017-12-01T00:03:56.876Z,1025.01
2017-12-01T00:04:56.858Z,1025.02
2017-12-01T00:05:56.844Z,1025.02
2017-12-01T00:06:56.832Z,1025.07
2017-12-01T00:07:56.816Z,1025.07
2017-12-01T00:08:56.800Z,1025.04
2017-12-01T00:09:56.792Z,1025.05
2017-12-01T00:10:56.779Z,1025.08
2017-12-01T00:11:56.753Z,1025.1
2017-12-01T00:12:56.744Z,1025.08
2017-12-01T00:13:56.725Z,1025.1
2017-12-01T00:14:56.713Z,1025.1
2017-12-01T00:15:56.697Z,1025.11
2017-12-01T00:16:56.683Z,1025.13
2017-12-01T00:17:56.666Z,1025.13
2017-12-01T00:18:56.653Z,1025.14
2017-12-01T00:19:56.636Z,1025.18
2017-12-01T00:20:56.624Z,1025.2
2017-12-01T00:21:56.606Z,1025.2
2017-12-01T00:22:56.597Z,1025.25
2017-12-01T00:23:56.579Z,1025.28
2017-12-01T00:24:56.563Z,1025.29
2017-12-01T00:25:56.553Z,1025.32
2017-12-01T00:26:56.531Z,1025.35
2017-12-01T00:27:56.520Z,1025.37
2017-12-01T00:28:56.506Z,1025.38
2017-12-01T00:29:56.493Z,1025.38
2017-12-01T00:30:56.475Z,1025.39
2017-12-01T00:31:56.462Z,1025.38
2017-12-01T00:32:56.442Z,1025.41
2017-12-01T00:33:56.428Z,1025.39
2017-12-01T00:34:56.412Z,1025.43
2017-12-01T00:35:56.399Z,1025.42
2017-12-01T00:36:56.382Z,1025.43
2017-12-01T00:37:56.368Z,1025.41
2017-12-01T00:38:56.356Z,1025.39
2017-12-01T00:39:56.341Z,1025.42
2017-12-01T00:40:56.336Z,1025.38
2017-12-01T00:41:56.312Z,1025.36
2017-12-01T00:42:56.300Z,1025.36
2017-12-01T00:43:56.280Z,1025.35
2017-12-01T00:44:56.269Z,1025.33
2017-12-01T00:45:56.253Z,1025.29
2017-12-01T00:46:56.238Z,1025.25
2017-12-01T00:47:56.220Z,1025.18
2017-12-01T00:48:56.210Z,1025.2
2017-12-01T00:49:56.205Z,1025.19
2017-12-01T00:50:56.201Z,1025.14
2017-12-01T00:51:56.207Z,1025.16
2017-12-01T00:52:56.146Z,1025.14
2017-12-01T00:53:56.148Z,1025.1
2017-12-01T00:54:56.152Z,1025.05
2017-12-01T00:55:56.143Z,1025.05
2017-12-01T00:56:56.131Z,1025.07
2017-12-01T00:57:56.077Z,1025.06
2017-12-01T00:58:56.058Z,1025
2017-12-01T00:59:56.045Z,1025.03
2017-12-01T01:00:56.031Z,1024.98
2017-12-01T01:01:56.013Z,1024.97
2017-12-01T01:02:55.998Z,1024.98
2017-12-01T01:03:55.985Z,1024.98
2017-12-01T01:04:55.971Z,1025
2017-12-01T01:05:55.957Z,1024.95
2017-12-01T01:06:55.941Z,1024.91
2017-12-01T01:07:55.926Z,1024.97
2017-12-01T01:08:55.972Z,1024.94
2017-12-01T01:09:55.899Z,1024.95
2017-12-01T01:10:55.885Z,1024.93
2017-12-01T01:11:55.874Z,1024.95
2017-12-01T01:12:55.868Z,1024.95
2017-12-01T01:13:55.839Z,1024.95
2017-12-01T01:14:55.825Z,1024.93
2017-12-01T01:15:55.814Z,1024.93
2017-12-01T01:16:55.799Z,1024.98
2017-12-01T01:17:55.782Z,1025.01
2017-12-01T01:18:55.771Z,1025
2017-12-01T01:19:55.755Z,1025
2017-12-01T01:20:55.741Z,1025.02
2017-12-01T01:21:55.727Z,1025
2017-12-01T01:22:55.716Z,1025.05
2017-12-01T01:23:55.699Z,1025.03
2017-12-01T01:24:55.682Z,1025.04
2017-12-01T01:25:55.668Z,1025.04
2017-12-01T01:26:55.654Z,1025.01
2017-12-01T01:27:55.642Z,1024.98
2017-12-01T01:28:55.628Z,1024.98
2017-12-01T01:29:55.614Z,1024.98
2017-12-01T01:30:55.599Z,1024.98
2017-12-01T01:31:55.582Z,1024.99
2017-12-01T01:32:55.571Z,1025.01
2017-12-01T01:33:55.557Z,1025.06
2017-12-01T01:34:55.540Z,1025.04
2017-12-01T01:35:55.539Z,1025.08
2017-12-01T01:36:55.514Z,1025.08
2017-12-01T01:37:55.498Z,1025.09
2017-12-01T01:38:55.482Z,1025.12
2017-12-01T01:39:55.469Z,1025.07
2017-12-01T01:40:55.456Z,1025.11
2017-12-01T01:41:55.441Z,1025.12
2017-12-01T01:42:55.427Z,1025.17
2017-12-01T01:43:55.452Z,1025.21
2017-12-01T01:44:55.400Z,1025.2
2017-12-01T01:45:55.389Z,1025.21
2017-12-01T01:46:55.374Z,1025.25
2017-12-01T01:47:55.360Z,1025.25
2017-12-01T01:48:55.346Z,1025.25
2017-12-01T01:49:55.329Z,1025.24
2017-12-01T01:50:55.317Z,1025.27
2017-12-01T01:51:55.303Z,1025.3
2017-12-01T01:52:55.287Z,1025.28
2017-12-01T01:53:55.272Z,1025.24
2017-12-01T01:54:55.257Z,1025.28
2017-12-01T01:55:55.247Z,1025.28
2017-12-01T01:56:55.231Z,1025.33
2017-12-01T01:57:55.218Z,1025.35
2017-12-01T01:58:55.208Z,1025.36
2017-12-01T01:59:55.191Z,1025.39
2017-12-01T02:00:55.176Z,1025.38
2017-12-01T02:01:55.159Z,1025.43
2017-12-01T02:02:55.151Z,1025.47
2017-12-01T02:03:55.132Z,1025.44
2017-12-01T02:04:55.127Z,1025.46
2017-12-01T02:05:55.105Z,1025.5
2017-12-01T02:06:55.092Z,1025.5
2017-12-01T02:07:55.078Z,1025.48
2017-12-01T02:08:55.064Z,1025.54
2017-12-01T02:09:55.048Z,1025.55
2017-12-01T02:10:55.033Z,1025.56
2017-12-01T02:11:55.019Z,1025.61
2017-12-01T02:12:55.008Z,1025.61
2017-12-01T02:13:54.993Z,1025.63
2017-12-01T02:14:54.976Z,1025.65
2017-12-01T02:15:54.964Z,1025.65
2017-12-01T02:16:54.950Z,1025.67
2017-12-01T02:17:54.937Z,1025.66
2017-12-01T02:18:54.921Z,1025.66
2017-12-01T02:19:54.910Z,1025.68
2017-12-01T02:20:54.891Z,1025.68
2017-12-01T02:21:54.888Z,1025.66
2017-12-01T02:22:54.862Z,1025.66
2017-12-01T02:23:54.849Z,1025.63
2017-12-01T02:24:54.842Z,1025.66
2017-12-01T02:25:54.822Z,1025.62
2017-12-01T02:26:54.806Z,1025.64
2017-12-01T02:27:54.792Z,1025.66
2017-12-01T02:28:54.781Z,1025.67
2017-12-01T02:29:54.764Z,1025.69
2017-12-01T02:30:54.750Z,1025.72
2017-12-01T02:31:54.737Z,1025.72
2017-12-01T02:32:54.722Z,1025.76
2017-12-01T02:33:54.711Z,1025.75
2017-12-01T02:34:54.692Z,1025.81
2017-12-01T02:35:54.681Z,1025.82
2017-12-01T02:36:54.667Z,1025.86
2017-12-01T02:37:54.652Z,1025.93
2017-12-01T02:38:54.638Z,1026.01
2017-12-01T02:39:54.621Z,1026.05
2017-12-01T02:40:54.609Z,1026.05
2017-12-01T02:41:54.593Z,1026.07
2017-12-01T02:42:54.581Z,1026.06
2017-12-01T02:43:54.566Z,1026.06
2017-12-01T02:44:54.553Z,1026.06
2017-12-01T02:45:54.537Z,1026.03
2017-12-01T02:46:54.523Z,1026.06
2017-12-01T02:47:54.507Z,1026.04
2017-12-01T02:48:54.496Z,1026.06
2017-12-01T02:49:54.477Z,1026.05
2017-12-01T02:50:54.463Z,1026.1
2017-12-01T02:51:54.450Z,1026.14
2017-12-01T02:52:54.438Z,1026.14
2017-12-01T02:53:54.423Z,1026.15
2017-12-01T02:54:54.409Z,1026.18
2017-12-01T02:55:54.392Z,1026.19
2017-12-01T02:56:54.379Z,1026.21
2017-12-01T02:57:54.364Z,1026.18
2017-12-01T02:58:54.349Z,1026.22
2017-12-01T02:59:54.332Z,1026.24
2017-12-01T03:00:54.318Z,1026.3
2017-12-01T03:01:54.307Z,1026.36
2017-12-01T03:02:54.292Z,1026.35
2017-12-01T03:03:54.276Z,1026.33
2017-12-01T03:04:54.260Z,1026.34
2017-12-01T03:05:54.249Z,1026.35
2017-12-01T03:06:54.232Z,1026.41
2017-12-01T03:07:54.219Z,1026.42
2017-12-01T03:08:54.201Z,1026.44
2017-12-01T03:09:54.191Z,1026.48
2017-12-01T03:10:54.173Z,1026.5
2017-12-01T03:11:54.159Z,1026.5
2017-12-01T03:12:54.145Z,1026.53
2017-12-01T03:13:54.128Z,1026.58
2017-12-01T03:14:54.115Z,1026.63
2017-12-01T03:15:54.099Z,1026.63
2017-12-01T03:16:54.086Z,1026.65
2017-12-01T03:17:54.073Z,1026.7
2017-12-01T03:18:54.056Z,1026.7
2017-12-01T03:19:54.041Z,1026.7
2017-12-01T03:20:54.032Z,1026.72
2017-12-01T03:21:54.012Z,1026.7
2017-12-01T03:22:53.996Z,1026.72
2017-12-01T03:23:53.982Z,1026.77
2017-12-01T03:24:53.976Z,1026.79
2017-12-01T03:25:53.955Z,1026.78
2017-12-01T03:26:53.937Z,1026.81
2017-12-01T03:27:53.926Z,1026.82
2017-12-01T03:28:53.908Z,1026.86
2017-12-01T03:29:53.892Z,1026.87
2017-12-01T03:30:53.881Z,1026.88
2017-12-01T03:31:53.864Z,1026.89
2017-12-01T03:32:53.850Z,1026.9
2017-12-01T03:33:53.835Z,1026.96
2017-12-01T03:34:53.819Z,1027
2017-12-01T03:35:53.807Z,1027.02
2017-12-01T03:36:53.790Z,1027.05
2017-12-01T03:37:53.772Z,1027.07
2017-12-01T03:38:53.761Z,1027.09
2017-12-01T03:39:53.745Z,1027.1
2017-12-01T03:40:53.730Z,1027.1
2017-12-01T03:41:53.713Z,1027.12
2017-12-01T03:42:53.701Z,1027.12
2017-12-01T03:43:53.686Z,1027.09
2017-12-01T03:44:53.671Z,1027.12
2017-12-01T03:45:53.655Z,1027.13
2017-12-01T03:46:53.640Z,1027.15
2017-12-01T03:47:53.624Z,1027.15
2017-12-01T03:48:53.608Z,1027.2
2017-12-01T03:49:53.593Z,1027.19
2017-12-01T03:50:53.577Z,1027.2
2017-12-01T03:51:53.568Z,1027.17
2017-12-01T03:52:53.550Z,1027.21
2017-12-01T03:53:53.533Z,1027.14
2017-12-01T03:54:53.520Z,1027.12
2017-12-01T03:55:53.505Z,1027.11
2017-12-01T03:56:53.490Z,1027.08
2017-12-01T03:57:53.471Z,1027.1
2017-12-01T03:58:53.459Z,1027.05
2017-12-01T03:59:53.441Z,1027.06
2017-12-01T04:00:53.428Z,1027.05
2017-12-01T04:01:53.411Z,1027.06
2017-12-01T04:02:53.396Z,1027.01
2017-12-01T04:03:53.384Z,1027.03
2017-12-01T04:04:53.368Z,1027.02
2017-12-01T04:05:53.350Z,1027
2017-12-01T04:06:53.337Z,1027
2017-12-01T04:07:53.323Z,1026.97
2017-12-01T04:08:53.306Z,1026.95
2017-12-01T04:09:53.293Z,1026.91
2017-12-01T04:10:53.278Z,1026.94
2017-12-01T04:11:53.264Z,1026.9
2017-12-01T04:12:53.278Z,1026.85
2017-12-01T04:13:53.230Z,1026.89
2017-12-01T04:14:53.219Z,1026.9
2017-12-01T04:15:53.202Z,1026.94
2017-12-01T04:16:53.191Z,1026.9
2017-12-01T04:17:53.172Z,1026.94
2017-12-01T04:18:53.159Z,1026.95
2017-12-01T04:19:53.142Z,1026.92
2017-12-01T04:20:53.130Z,1026.95
2017-12-01T04:21:53.114Z,1026.97
2017-12-01T04:22:53.097Z,1026.94
2017-12-01T04:23:53.084Z,1026.91
2017-12-01T04:24:53.069Z,1026.99
2017-12-01T04:25:53.054Z,1026.97
2017-12-01T04:26:53.039Z,1026.96
2017-12-01T04:27:53.021Z,1027
2017-12-01T04:28:53.010Z,1026.98
2017-12-01T04:29:52.995Z,1026.91
2017-12-01T04:30:52.978Z,1026.97
2017-12-01T04:31:52.964Z,1026.96
2017-12-01T04:32:52.951Z,1026.95
2017-12-01T04:33:52.937Z,1026.95
2017-12-01T04:34:52.919Z,1026.96
2017-12-01T04:35:52.907Z,1026.94
2017-12-01T04:36:52.894Z,1026.94
2017-12-01T04:37:52.876Z,1026.92
2017-12-01T04:38:52.862Z,1026.94
2017-12-01T04:39:52.846Z,1026.93
2017-12-01T04:40:52.831Z,1026.93
2017-12-01T04:41:52.815Z,1026.92
2017-12-01T04:42:52.804Z,1026.92
2017-12-01T04:43:52.789Z,1026.89
2017-12-01T04:44:52.772Z,1026.93
2017-12-01T04:45:52.760Z,1026.88
2017-12-01T04:46:52.746Z,1026.87
2017-12-01T04:47:52.732Z,1026.94
2017-12-01T04:48:52.716Z,1026.97
2017-12-01T04:49:52.702Z,1026.95
2017-12-01T04:50:52.684Z,1026.99
2017-12-01T04:51:52.673Z,1027
2017-12-01T04:52:52.658Z,1027.03
2017-12-01T04:53:52.641Z,1027
2017-12-01T04:54:52.630Z,1027.02
2017-12-01T04:55:52.613Z,1027.04
2017-12-01T04:56:52.597Z,1027.01
2017-12-01T04:57:52.582Z,1027.02
2017-12-01T04:58:52.569Z,1027.03
2017-12-01T04:59:52.554Z,1027.03
2017-12-01T05:00:52.542Z,1027.04
2017-12-01T05:01:52.526Z,1027.06
2017-12-01T05:02:52.514Z,1027.06
2017-12-01T05:03:52.498Z,1027.07
2017-12-01T05:04:52.480Z,1027.09
2017-12-01T05:05:52.466Z,1027.07
2017-12-01T05:06:52.453Z,1027.08
2017-12-01T05:07:52.437Z,1027.1
2017-12-01T05:08:52.423Z,1027.09
2017-12-01T05:09:52.412Z,1027.15
2017-12-01T05:10:52.397Z,1027.14
2017-12-01T05:11:52.380Z,1027.18
2017-12-01T05:12:52.366Z,1027.21
2017-12-01T05:13:52.355Z,1027.2
2017-12-01T05:14:52.336Z,1027.21
2017-12-01T05:15:52.322Z,1027.21
2017-12-01T05:16:52.308Z,1027.26
2017-12-01T05:17:52.294Z,1027.22
2017-12-01T05:18:52.281Z,1027.24
2017-12-01T05:19:52.264Z,1027.23
2017-12-01T05:20:52.253Z,1027.26
2017-12-01T05:21:52.239Z,1027.26
2017-12-01T05:22:52.221Z,1027.29
2017-12-01T05:23:52.208Z,1027.29
2017-12-01T05:24:52.195Z,1027.31
2017-12-01T05:25:52.177Z,1027.3
2017-12-01T05:26:52.163Z,1027.3
2017-12-01T05:27:52.153Z,1027.28
2017-12-01T05:28:52.135Z,1027.26
2017-12-01T05:29:52.124Z,1027.33
2017-12-01T05:30:52.110Z,1027.33
2017-12-01T05:31:52.096Z,1027.32
2017-12-01T05:32:52.082Z,1027.32
2017-12-01T05:33:52.064Z,1027.32
2017-12-01T05:34:52.053Z,1027.31
2017-12-01T05:35:52.037Z,1027.31
2017-12-01T05:36:52.021Z,1027.31
2017-12-01T05:37:52.007Z,1027.28
2017-12-01T05:38:51.994Z,1027.26
2017-12-01T05:39:51.978Z,1027.3
2017-12-01T05:40:51.965Z,1027.33
2017-12-01T05:41:51.951Z,1027.33
2017-12-01T05:42:51.939Z,1027.34
2017-12-01T05:43:51.924Z,1027.33
2017-12-01T05:44:51.907Z,1027.32
2017-12-01T05:45:51.894Z,1027.35
2017-12-01T05:46:51.880Z,1027.36
2017-12-01T05:47:51.864Z,1027.35
2017-12-01T05:48:51.851Z,1027.38
2017-12-01T05:49:51.836Z,1027.36
2017-12-01T05:50:51.824Z,1027.38
2017-12-01T05:51:51.811Z,1027.37
2017-12-01T05:52:51.793Z,1027.43
2017-12-01T05:53:51.781Z,1027.43
2017-12-01T05:54:51.765Z,1027.46
2017-12-01T05:55:51.753Z,1027.53
2017-12-01T05:56:51.737Z,1027.59
2017-12-01T05:57:51.727Z,1027.58
2017-12-01T05:58:51.718Z,1027.62
2017-12-01T05:59:51.697Z,1027.63
2017-12-01T06:00:51.684Z,1027.61
2017-12-01T06:01:51.668Z,1027.61
2017-12-01T06:02:51.652Z,1027.59
2017-12-01T06:03:51.640Z,1027.55
2017-12-01T06:04:51.626Z,1027.55
2017-12-01T06:05:51.613Z,1027.57
2017-12-01T06:06:51.595Z,1027.61
2017-12-01T06:07:51.581Z,1027.68
2017-12-01T06:08:51.570Z,1027.7
2017-12-01T06:09:51.552Z,1027.73
2017-12-01T06:10:51.537Z,1027.75
2017-12-01T06:11:51.527Z,1027.81
2017-12-01T06:12:51.511Z,1027.87
2017-12-01T06:13:51.508Z,1027.94
2017-12-01T06:14:51.482Z,1027.95
2017-12-01T06:15:51.472Z,1027.95
2017-12-01T06:16:51.455Z,1027.99
2017-12-01T06:17:51.438Z,1028.01
2017-12-01T06:18:51.425Z,1027.99
2017-12-01T06:19:51.414Z,1027.98
2017-12-01T06:20:51.398Z,1027.95
2017-12-01T06:21:51.384Z,1027.96
2017-12-01T06:22:51.370Z,1027.97
2017-12-01T06:23:51.351Z,1027.97
2017-12-01T06:24:51.338Z,1027.93
2017-12-01T06:25:51.324Z,1027.92
2017-12-01T06:26:51.312Z,1027.92
2017-12-01T06:27:51.294Z,1027.98
2017-12-01T06:28:51.283Z,1028
2017-12-01T06:29:51.268Z,1028.02
2017-12-01T06:30:51.255Z,1028.13
2017-12-01T06:31:51.239Z,1028.16
2017-12-01T06:32:51.223Z,1028.23
2017-12-01T06:33:51.208Z,1028.29
2017-12-01T06:34:51.196Z,1028.34
2017-12-01T06:35:51.181Z,1028.39
2017-12-01T06:36:51.167Z,1028.47
2017-12-01T06:37:51.149Z,1028.56
2017-12-01T06:38:51.136Z,1028.64
2017-12-01T06:39:51.121Z,1028.66
2017-12-01T06:40:51.109Z,1028.73
2017-12-01T06:41:51.093Z,1028.78
2017-12-01T06:42:51.077Z,1028.83
2017-12-01T06:43:51.066Z,1028.88
2017-12-01T06:44:51.051Z,1028.86
2017-12-01T06:45:51.036Z,1028.92
2017-12-01T06:46:51.021Z,1028.97
2017-12-01T06:47:51.011Z,1028.96
2017-12-01T06:48:50.989Z,1029.03
2017-12-01T06:49:50.973Z,1029.05
2017-12-01T06:50:50.962Z,1029.06
2017-12-01T06:51:50.947Z,1029.01
2017-12-01T06:52:50.933Z,1029.03
2017-12-01T06:53:50.915Z,1029.04
2017-12-01T06:54:50.903Z,1029.04
2017-12-01T06:55:50.889Z,1029.01
2017-12-01T06:56:50.875Z,1028.99
2017-12-01T06:57:50.858Z,1028.99
2017-12-01T06:58:50.843Z,1028.93
2017-12-01T06:59:50.829Z,1028.95
2017-12-01T07:00:50.813Z,1028.92
2017-12-01T07:01:50.798Z,1028.92
2017-12-01T07:02:50.790Z,1028.88
2017-12-01T07:03:50.772Z,1028.88
2017-12-01T07:04:50.751Z,1028.93
2017-12-01T07:05:50.740Z,1028.9
2017-12-01T07:06:50.725Z,1028.87
2017-12-01T07:07:50.713Z,1028.85
2017-12-01T07:08:50.693Z,1028.82
2017-12-01T07:09:50.680Z,1028.84
2017-12-01T07:10:50.664Z,1028.83
2017-12-01T07:11:50.650Z,1028.81
2017-12-01T07:12:50.656Z,1028.79
2017-12-01T07:13:50.620Z,1028.81
2017-12-01T07:14:50.608Z,1028.78
2017-12-01T07:15:50.589Z,1028.76
2017-12-01T07:16:50.573Z,1028.76
2017-12-01T07:17:50.563Z,1028.74
2017-12-01T07:18:50.547Z,1028.71
2017-12-01T07:19:50.533Z,1028.67
2017-12-01T07:20:50.518Z,1028.66
2017-12-01T07:21:50.503Z,1028.7
2017-12-01T07:22:50.488Z,1028.69
2017-12-01T07:23:50.472Z,1028.71
2017-12-01T07:24:50.457Z,1028.68
2017-12-01T07:25:50.444Z,1028.68
2017-12-01T07:26:50.427Z,1028.67
2017-12-01T07:27:50.416Z,1028.66
2017-12-01T07:28:50.400Z,1028.61
2017-12-01T07:29:50.383Z,1028.58
2017-12-01T07:30:50.372Z,1028.56
2017-12-01T07:31:50.358Z,1028.52
2017-12-01T07:32:50.341Z,1028.52
2017-12-01T07:33:50.333Z,1028.46
2017-12-01T07:34:50.315Z,1028.49
2017-12-01T07:35:50.298Z,1028.46
2017-12-01T07:36:50.286Z,1028.43
2017-12-01T07:37:50.273Z,1028.4
2017-12-01T07:38:50.258Z,1028.41
2017-12-01T07:39:50.244Z,1028.43
2017-12-01T07:40:50.226Z,1028.39
2017-12-01T07:41:50.216Z,1028.43
2017-12-01T07:42:50.199Z,1028.37
2017-12-01T07:43:50.188Z,1028.31
2017-12-01T07:44:50.170Z,1028.37
2017-12-01T07:45:50.157Z,1028.37
2017-12-01T07:46:50.146Z,1028.31
2017-12-01T07:47:50.134Z,1028.28
2017-12-01T07:48:50.149Z,1028.25
2017-12-01T07:49:50.104Z,1028.25
2017-12-01T07:50:50.091Z,1028.23
2017-12-01T07:51:50.080Z,1028.2
2017-12-01T07:52:50.063Z,1028.22
2017-12-01T07:53:50.047Z,1028.25
2017-12-01T07:54:50.034Z,1028.33
2017-12-01T07:55:50.018Z,1028.25
2017-12-01T07:56:50.007Z,1028.3
2017-12-01T07:57:49.994Z,1028.33
2017-12-01T07:58:49.980Z,1028.3
2017-12-01T07:59:49.966Z,1028.35
2017-12-01T08:00:49.953Z,1028.34
2017-12-01T08:01:49.938Z,1028.32
2017-12-01T08:02:49.926Z,1028.36
2017-12-01T08:03:49.912Z,1028.34
2017-12-01T08:04:49.899Z,1028.34
2017-12-01T08:05:49.888Z,1028.32
2017-12-01T08:06:49.868Z,1028.32
2017-12-01T08:07:49.856Z,1028.32
2017-12-01T08:08:49.851Z,1028.34
2017-12-01T08:09:49.829Z,1028.28
2017-12-01T08:10:49.819Z,1028.29
2017-12-01T08:11:49.806Z,1028.3
2017-12-01T08:12:49.792Z,1028.23
2017-12-01T08:13:49.781Z,1028.14
2017-12-01T08:14:49.772Z,1028.16
2017-12-01T08:15:49.748Z,1028.15
2017-12-01T08:16:49.738Z,1028.13
2017-12-01T08:17:49.722Z,1028.12
2017-12-01T08:18:49.712Z,1028.06
2017-12-01T08:19:49.699Z,1028.07
2017-12-01T08:20:49.684Z,1028.13
2017-12-01T08:21:49.672Z,1028.13
2017-12-01T08:22:49.655Z,1028.18
2017-12-01T08:23:49.645Z,1028.19
2017-12-01T08:24:49.632Z,1028.19
2017-12-01T08:25:49.618Z,1028.2
2017-12-01T08:26:49.604Z,1028.22
2017-12-01T08:27:49.603Z,1028.2
2017-12-01T08:28:49.587Z,1028.2
2017-12-01T08:29:49.571Z,1028.2
2017-12-01T08:30:49.563Z,1028.22
2017-12-01T08:31:49.539Z,1028.21
2017-12-01T08:32:49.533Z,1028.15
2017-12-01T08:33:49.515Z,1028.13
2017-12-01T08:34:49.503Z,1028.07
2017-12-01T08:35:49.487Z,1028.02
2017-12-01T08:36:49.477Z,1027.92
2017-12-01T08:37:49.461Z,1027.85
2017-12-01T08:38:49.451Z,1027.82
2017-12-01T08:39:49.650Z,1027.82
2017-12-01T08:40:49.435Z,1027.76
2017-12-01T08:41:49.418Z,1027.79
2017-12-01T08:42:49.412Z,1027.79
2017-12-01T08:43:49.592Z,1027.83
2017-12-01T08:44:49.376Z,1027.82
2017-12-01T08:45:49.367Z,1027.87
2017-12-01T08:46:49.364Z,1027.86
2017-12-01T08:47:49.355Z,1027.89
2017-12-01T08:48:49.339Z,1027.92
2017-12-01T08:49:49.320Z,1027.93
2017-12-01T08:50:49.310Z,1027.98
2017-12-01T08:51:49.287Z,1027.99
2017-12-01T08:52:49.280Z,1027.98
2017-12-01T08:53:49.270Z,1028.02
2017-12-01T08:54:49.250Z,1028.02
2017-12-01T08:55:49.239Z,1028.05
2017-12-01T08:56:49.223Z,1028.1
2017-12-01T08:57:49.214Z,1028.08
2017-12-01T08:58:49.201Z,1028.07
2017-12-01T08:59:49.185Z,1028.05
2017-12-01T09:00:49.175Z,1028.04
2017-12-01T09:01:49.159Z,1028.03
2017-12-01T09:02:49.156Z,1028.01
2017-12-01T09:03:49.138Z,1027.93
2017-12-01T09:04:49.140Z,1027.9
2017-12-01T09:05:49.112Z,1027.92
2017-12-01T09:06:49.098Z,1027.9
2017-12-01T09:07:49.086Z,1027.86
2017-12-01T09:08:49.079Z,1027.85
2017-12-01T09:09:49.085Z,1027.82
2017-12-01T09:10:49.049Z,1027.84
2017-12-01T09:11:49.054Z,1027.87
2017-12-01T09:12:49.032Z,1027.94
2017-12-01T09:13:49.013Z,1028
2017-12-01T09:14:49.005Z,1027.99
2017-12-01T09:15:48.998Z,1028.04
2017-12-01T09:16:48.979Z,1028.11
2017-12-01T09:17:48.967Z,1028.15
2017-12-01T09:18:48.955Z,1028.21
2017-12-01T09:19:48.940Z,1028.2
2017-12-01T09:20:48.938Z,1028.22
2017-12-01T09:21:48.919Z,1028.19
2017-12-01T09:22:48.907Z,1028.18
2017-12-01T09:23:48.893Z,1028.16
2017-12-01T09:24:48.880Z,1028.11
2017-12-01T09:25:48.868Z,1028.1
2017-12-01T09:26:48.856Z,1028.08
2017-12-01T09:27:48.846Z,1028.06
2017-12-01T09:28:48.834Z,1028
2017-12-01T09:29:48.828Z,1027.94
2017-12-01T09:30:48.810Z,1027.93
2017-12-01T09:31:48.795Z,1027.94
2017-12-01T09:32:48.786Z,1027.9
2017-12-01T09:33:48.784Z,1027.92
2017-12-01T09:34:48.764Z,1027.92
2017-12-01T09:35:48.750Z,1027.96
2017-12-01T09:36:48.735Z,1027.94
2017-12-01T09:37:48.734Z,1028.02
2017-12-01T09:38:48.731Z,1028.05
2017-12-01T09:39:48.704Z,1028
2017-12-01T09:40:48.702Z,1027.98
2017-12-01T09:41:48.695Z,1027.93
2017-12-01T09:42:48.666Z,1027.86
2017-12-01T09:43:48.656Z,1027.78
2017-12-01T09:44:48.643Z,1027.73
2017-12-01T09:45:48.641Z,1027.6
2017-12-01T09:46:48.638Z,1027.55
2017-12-01T09:47:48.615Z,1027.58
2017-12-01T09:48:48.599Z,1027.58
2017-12-01T09:49:48.588Z,1027.6
2017-12-01T09:50:48.578Z,1027.6
2017-12-01T09:51:48.573Z,1027.58
2017-12-01T09:52:48.547Z,1027.54
2017-12-01T09:53:48.552Z,1027.49
2017-12-01T09:54:48.531Z,1027.41
2017-12-01T09:55:48.522Z,1027.34
2017-12-01T09:56:48.506Z,1027.34
2017-12-01T09:57:48.493Z,1027.31
2017-12-01T09:58:48.482Z,1027.31
2017-12-01T09:59:48.471Z,1027.41
2017-12-01T10:00:48.460Z,1027.38
2017-12-01T10:01:48.459Z,1027.38
2017-12-01T10:02:48.442Z,1027.35
2017-12-01T10:03:48.425Z,1027.3
2017-12-01T10:04:48.412Z,1027.19
2017-12-01T10:05:48.404Z,1027.2
2017-12-01T10:06:48.390Z,1027.22
2017-12-01T10:07:48.390Z,1027.21
2017-12-01T10:08:48.369Z,1027.29
2017-12-01T10:09:48.363Z,1027.35
2017-12-01T10:10:48.345Z,1027.36
2017-12-01T10:11:48.334Z,1027.41
2017-12-01T10:12:48.328Z,1027.41
2017-12-01T10:13:48.313Z,1027.38
2017-12-01T10:14:48.304Z,1027.49
2017-12-01T10:15:48.293Z,1027.54
2017-12-01T10:16:48.285Z,1027.58
2017-12-01T10:17:48.270Z,1027.62
2017-12-01T10:18:48.262Z,1027.64
2017-12-01T10:19:48.248Z,1027.6
2017-12-01T10:20:48.244Z,1027.64
2017-12-01T10:21:48.231Z,1027.69
2017-12-01T10:22:48.219Z,1027.71
2017-12-01T10:23:48.205Z,1027.74
2017-12-01T10:24:48.199Z,1027.75
2017-12-01T10:25:48.189Z,1027.79
2017-12-01T10:26:48.175Z,1027.75
2017-12-01T10:27:48.165Z,1027.8
2017-12-01T10:28:48.149Z,1027.8
2017-12-01T10:29:48.143Z,1027.74
2017-12-01T10:30:48.131Z,1027.73
2017-12-01T10:31:48.118Z,1027.71
2017-12-01T10:32:48.113Z,1027.69
2017-12-01T10:33:48.109Z,1027.68
2017-12-01T10:34:48.088Z,1027.66
2017-12-01T10:35:48.087Z,1027.69
2017-12-01T10:36:48.064Z,1027.76
2017-12-01T10:37:48.052Z,1027.73
2017-12-01T10:38:48.043Z,1027.76
2017-12-01T10:39:48.031Z,1027.83
2017-12-01T10:40:48.022Z,1027.86
2017-12-01T10:41:48.015Z,1027.88
2017-12-01T10:42:47.996Z,1027.89
2017-12-01T10:43:47.987Z,1027.91
2017-12-01T10:44:47.974Z,1027.86
2017-12-01T10:45:47.963Z,1027.9
2017-12-01T10:46:47.951Z,1027.9
2017-12-01T10:47:47.940Z,1027.9
2017-12-01T10:48:47.928Z,1027.96
2017-12-01T10:49:47.921Z,1028.1
2017-12-01T10:50:47.920Z,1028.12
2017-12-01T10:51:47.918Z,1028.15
2017-12-01T10:52:47.891Z,1028.16
2017-12-01T10:53:47.891Z,1028.22
2017-12-01T10:54:47.864Z,1028.2
2017-12-01T10:55:47.857Z,1028.26
2017-12-01T10:56:47.844Z,1028.27
2017-12-01T10:57:47.828Z,1028.31
2017-12-01T10:58:47.832Z,1028.32
2017-12-01T10:59:47.824Z,1028.35
2017-12-01T11:00:47.797Z,1028.38
2017-12-01T11:01:47.799Z,1028.4
2017-12-01T11:02:47.782Z,1028.41
2017-12-01T11:03:47.781Z,1028.47
2017-12-01T11:04:47.981Z,1028.47
2017-12-01T11:05:47.736Z,1028.52
2017-12-01T11:06:47.726Z,1028.53
2017-12-01T11:07:47.720Z,1028.57
2017-12-01T11:08:47.705Z,1028.64
2017-12-01T11:09:47.704Z,1028.71
2017-12-01T11:10:47.682Z,1028.77
2017-12-01T11:11:47.678Z,1028.8
2017-12-01T11:12:47.672Z,1028.82
2017-12-01T11:13:47.651Z,1028.85
2017-12-01T11:14:47.652Z,1028.84
2017-12-01T11:15:47.626Z,1028.8
2017-12-01T11:16:47.629Z,1028.78
2017-12-01T11:17:47.599Z,1028.78
2017-12-01T11:18:47.605Z,1028.73
2017-12-01T11:19:47.576Z,1028.69
2017-12-01T11:20:47.582Z,1028.66
2017-12-01T11:21:47.578Z,1028.63
2017-12-01T11:22:47.543Z,1028.65
2017-12-01T11:23:47.533Z,1028.62
2017-12-01T11:24:47.519Z,1028.61
2017-12-01T11:25:47.510Z,1028.6
2017-12-01T11:26:47.514Z,1028.56
2017-12-01T11:27:47.486Z,1028.53
2017-12-01T11:28:47.484Z,1028.54
2017-12-01T11:29:47.470Z,1028.53
2017-12-01T11:30:47.462Z,1028.52
2017-12-01T11:31:47.452Z,1028.5
2017-12-01T11:32:47.434Z,1028.48
2017-12-01T11:33:47.425Z,1028.45
2017-12-01T11:34:47.408Z,1028.43
2017-12-01T11:35:47.394Z,1028.41
2017-12-01T11:36:47.431Z,1028.37
2017-12-01T11:37:47.370Z,1028.38
2017-12-01T11:38:47.357Z,1028.4
2017-12-01T11:39:47.352Z,1028.47
2017-12-01T11:40:47.342Z,1028.48
2017-12-01T11:41:47.332Z,1028.48
2017-12-01T11:42:47.327Z,1028.46
2017-12-01T11:43:47.300Z,1028.39
2017-12-01T11:44:47.298Z,1028.42
2017-12-01T11:45:47.286Z,1028.38
2017-12-01T11:46:47.272Z,1028.35
2017-12-01T11:47:47.260Z,1028.32
2017-12-01T11:48:47.243Z,1028.26
2017-12-01T11:49:47.236Z,1028.25
2017-12-01T11:50:47.223Z,1028.23
2017-12-01T11:51:47.209Z,1028.22
2017-12-01T11:52:47.198Z,1028.21
2017-12-01T11:53:47.189Z,1028.24
2017-12-01T11:54:47.177Z,1028.28
2017-12-01T11:55:47.165Z,1028.29
2017-12-01T11:56:47.175Z,1028.27
2017-12-01T11:57:47.142Z,1028.31
2017-12-01T11:58:47.131Z,1028.32
2017-12-01T11:59:47.127Z,1028.3
2017-12-01T12:00:47.115Z,1028.31
2017-12-01T12:01:47.099Z,1028.32
2017-12-01T12:02:47.088Z,1028.33
2017-12-01T12:03:47.079Z,1028.46
2017-12-01T12:04:47.068Z,1028.45
2017-12-01T12:05:47.057Z,1028.54
2017-12-01T12:06:47.046Z,1028.56
2017-12-01T12:07:47.035Z,1028.59
2017-12-01T12:08:47.024Z,1028.63
2017-12-01T12:09:47.011Z,1028.63